Time;durP1;ratioP1;P1;durP2;ratioP2;P2;SDS_P1;SDS_P2;PMS_P1;PMS_P2;Temp;Humidity;BMP_temperature;BMP_pressure;BME280_temperature;BME280_humidity;BME280_pressure;Samples;Min_cycle;Max_cycle;Signal;HPM_P1;HPM_P2
2023/02/08 00:01:49;;;;;;;17.00;13.13;;;-0.60;99.90;;;;;;5022187;28;20633;-71
2023/02/08 00:04:15;;;;;;;15.30;12.00;;;-0.60;99.90;;;;;;5035080;28;20248;-71
2023/02/08 00:06:40;;;;;;;16.60;12.43;;;-0.60;99.90;;;;;;5033357;28;20203;-71
2023/02/08 00:09:07;;;;;;;14.07;11.30;;;-0.60;99.90;;;;;;5034880;28;20195;-72
2023/02/08 00:11:33;;;;;;;16.13;12.73;;;-0.60;99.90;;;;;;5035319;28;20182;-71
2023/02/08 00:13:58;;;;;;;14.23;11.87;;;-0.60;99.90;;;;;;5033869;28;20934;-70
2023/02/08 00:16:24;;;;;;;13.63;11.33;;;-0.60;99.90;;;;;;5034539;28;20167;-70
2023/02/08 00:18:49;;;;;;;15.90;11.10;;;-0.70;99.90;;;;;;5033302;28;20171;-71
2023/02/08 00:21:16;;;;;;;16.50;10.83;;;-0.60;99.90;;;;;;5034507;28;20175;-71
2023/02/08 00:23:42;;;;;;;14.93;11.87;;;-0.60;99.90;;;;;;5032836;28;20693;-71
2023/02/08 00:26:09;;;;;;;12.53;10.63;;;-0.60;99.90;;;;;;5034172;28;20414;-71
2023/02/08 00:28:34;;;;;;;14.47;10.60;;;-0.70;99.90;;;;;;5031953;28;20198;-72
2023/02/08 00:31:00;;;;;;;16.10;11.03;;;-0.80;99.90;;;;;;5034428;28;20924;-71
2023/02/08 00:33:25;;;;;;;13.53;10.37;;;-0.70;99.90;;;;;;5032868;28;20179;-71
2023/02/08 00:35:56;;;;;;;14.20;11.40;;;-0.80;99.90;;;;;;5034141;28;20175;-71
2023/02/08 00:38:22;;;;;;;14.90;10.00;;;-0.80;99.90;;;;;;5033965;28;20247;-71
2023/02/08 00:40:47;;;;;;;17.93;11.23;;;-0.80;99.90;;;;;;5034042;28;20429;-71
2023/02/08 00:43:13;;;;;;;12.53;10.20;;;-0.80;99.90;;;;;;5034200;28;20184;-70
2023/02/08 00:45:38;;;;;;;12.87;10.40;;;-0.80;99.90;;;;;;5032569;28;20183;-72
2023/02/08 00:48:04;;;;;;;14.93;10.97;;;-0.80;99.90;;;;;;5033162;28;20175;-70
2023/02/08 00:50:29;;;;;;;13.10;9.90;;;-0.80;99.90;;;;;;5033053;28;20198;-72
2023/02/08 00:52:57;;;;;;;12.40;10.00;;;-0.90;99.90;;;;;;5032998;28;20292;-70
2023/02/08 00:55:22;;;;;;;12.13;10.03;;;-1.00;99.90;;;;;;5048115;28;20180;-70
2023/02/08 00:57:48;;;;;;;11.93;9.23;;;-1.00;99.90;;;;;;5032863;28;20406;-71
2023/02/08 01:00:13;;;;;;;11.97;9.37;;;-1.10;99.90;;;;;;5032450;28;20188;-71
2023/02/08 01:02:39;;;;;;;12.60;9.50;;;-1.00;99.90;;;;;;5032816;28;20199;-71
2023/02/08 01:05:05;;;;;;;12.60;10.27;;;-0.90;99.90;;;;;;5031715;28;20275;-71
2023/02/08 01:07:31;;;;;;;12.20;10.60;;;-0.90;99.90;;;;;;5032798;28;20589;-70
2023/02/08 01:09:56;;;;;;;12.33;9.57;;;-1.00;99.90;;;;;;5032567;28;20508;-70
2023/02/08 01:12:23;;;;;;;13.47;9.90;;;-0.90;99.90;;;;;;5047968;28;20195;-71
2023/02/08 01:14:49;;;;;;;12.27;9.00;;;-1.00;99.90;;;;;;5030493;28;20179;-71
2023/02/08 01:17:14;;;;;;;13.90;9.23;;;-1.00;99.90;;;;;;5033138;28;20411;-71
2023/02/08 01:19:40;;;;;;;12.63;8.90;;;-1.10;99.90;;;;;;5032941;28;20183;-71
2023/02/08 01:22:05;;;;;;;10.03;8.40;;;-1.30;99.90;;;;;;5048257;28;20666;-71
2023/02/08 01:24:31;;;;;;;9.23;7.70;;;-1.20;99.90;;;;;;5032323;28;20179;-70
2023/02/08 01:26:57;;;;;;;11.40;8.93;;;-1.20;99.90;;;;;;5032561;28;20704;-71
2023/02/08 01:29:23;;;;;;;12.70;8.93;;;-1.20;99.90;;;;;;5031430;28;20214;-72
2023/02/08 01:31:48;;;;;;;12.43;8.70;;;-1.20;99.90;;;;;;5032662;28;20798;-70
2023/02/08 01:34:14;;;;;;;10.30;7.63;;;-1.30;99.90;;;;;;5033023;28;20657;-71
2023/02/08 01:36:40;;;;;;;11.03;8.60;;;-1.20;99.90;;;;;;5037056;28;20223;-72
2023/02/08 01:39:06;;;;;;;12.77;9.10;;;-1.20;99.90;;;;;;5037032;28;20194;-71
2023/02/08 01:41:35;;;;;;;8.87;7.30;;;-1.20;99.90;;;;;;5052691;28;20202;-71
2023/02/08 01:44:03;;;;;;;9.83;7.87;;;-1.20;99.90;;;;;;5037222;28;20413;-72
2023/02/08 01:46:29;;;;;;;11.27;8.17;;;-1.20;99.90;;;;;;5052495;28;20414;-71
2023/02/08 01:49:01;;;;;;;12.53;9.23;;;-1.30;99.90;;;;;;5035977;28;20545;-72
2023/02/08 01:51:31;;;;;;;10.90;8.60;;;-1.30;99.90;;;;;;5035726;28;20873;-72
2023/02/08 01:53:59;;;;;;;11.03;8.43;;;-1.20;99.90;;;;;;5037514;28;20884;-71
2023/02/08 01:56:32;;;;;;;11.67;8.73;;;-1.20;99.90;;;;;;5037012;28;20402;-71
2023/02/08 01:59:01;;;;;;;10.67;8.17;;;-1.20;99.90;;;;;;5036719;28;20492;-71
2023/02/08 02:01:29;;;;;;;10.93;8.60;;;-1.20;99.90;;;;;;5016166;28;21007;-71
2023/02/08 02:03:56;;;;;;;12.77;9.67;;;-1.30;99.90;;;;;;5017137;28;20418;-72
2023/02/08 02:06:28;;;;;;;11.60;9.80;;;-1.40;99.90;;;;;;5017244;28;20407;-71
2023/02/08 02:09:12;;;;;;;14.53;8.93;;;-1.40;99.90;;;;;;5015911;28;20458;-71
2023/02/08 02:11:38;;;;;;;11.30;9.17;;;-1.40;99.90;;;;;;5027578;28;20441;-70
2023/02/08 02:14:04;;;;;;;11.93;8.83;;;-1.50;99.90;;;;;;5037024;28;20916;-70
2023/02/08 02:16:29;;;;;;;12.87;9.93;;;-1.50;99.90;;;;;;5036920;28;20179;-71
2023/02/08 02:18:55;;;;;;;12.10;9.90;;;-1.50;99.90;;;;;;5051929;28;20410;-69
2023/02/08 02:21:38;;;;;;;13.67;9.67;;;-1.50;99.90;;;;;;5036442;28;20569;-70
2023/02/08 02:24:19;;;;;;;13.67;9.60;;;-1.50;99.90;;;;;;5017049;28;20646;-70
2023/02/08 02:27:03;;;;;;;12.13;10.67;;;-1.50;99.90;;;;;;5016691;28;20396;-69
2023/02/08 02:29:29;;;;;;;12.83;9.33;;;-1.50;99.90;;;;;;5017857;28;20958;-70
2023/02/08 02:32:03;;;;;;;11.70;10.50;;;-1.50;99.90;;;;;;5036289;28;20430;-70
2023/02/08 02:34:49;;;;;;;13.77;9.90;;;-1.40;99.90;;;;;;5035065;28;20638;-69
2023/02/08 02:37:52;;;;;;;13.87;10.57;;;-1.40;99.90;;;;;;5035087;28;20413;-69
2023/02/08 02:40:26;;;;;;;12.83;10.60;;;-1.30;99.90;;;;;;5035546;28;20796;-71
2023/02/08 02:46:28;;;;;;;13.40;11.30;;;-1.50;99.90;;;;;;5036135;28;20401;-71
2023/02/08 02:49:02;;;;;;;13.87;10.10;;;-1.50;99.90;;;;;;5036893;28;20441;-71
2023/02/08 02:51:33;;;;;;;16.43;10.70;;;-1.50;99.90;;;;;;5036353;28;20461;-69
2023/02/08 02:54:08;;;;;;;13.83;10.47;;;-1.50;99.90;;;;;;5035077;28;20406;-71
2023/02/08 02:56:41;;;;;;;12.03;9.60;;;-1.50;99.90;;;;;;5036715;28;20747;-71
2023/02/08 02:59:09;;;;;;;12.00;10.47;;;-1.50;99.90;;;;;;5036895;28;20393;-71
2023/02/08 03:01:35;;;;;;;14.23;11.90;;;-1.50;99.90;;;;;;5037015;28;20525;-71
2023/02/08 03:04:37;;;;;;;11.83;9.40;;;-1.50;99.90;;;;;;5034771;28;20433;-71
2023/02/08 03:07:47;;;;;;;13.93;10.63;;;-1.50;99.90;;;;;;5036564;28;20422;-71
2023/02/08 03:10:34;;;;;;;10.23;9.13;;;-1.50;99.90;;;;;;5053692;28;21004;-71
2023/02/08 03:13:06;;;;;;;12.00;8.90;;;-1.50;99.90;;;;;;5038243;28;20425;-72
2023/02/08 03:16:00;;;;;;;12.37;10.90;;;-1.60;99.90;;;;;;5051743;28;20513;-72
2023/02/08 03:19:02;;;;;;;13.20;9.83;;;-1.50;99.90;;;;;;5035763;28;20476;-71
2023/02/08 03:21:45;;;;;;;13.37;9.40;;;-1.50;99.90;;;;;;5051885;28;20857;-71
2023/02/08 03:24:35;;;;;;;13.20;9.93;;;-1.60;99.90;;;;;;5036320;28;20395;-71
2023/02/08 03:27:33;;;;;;;12.93;9.80;;;-1.60;99.90;;;;;;5050402;28;20428;-71
2023/02/08 03:30:31;;;;;;;10.47;9.37;;;-1.60;99.90;;;;;;5023982;28;20474;-71
2023/02/08 03:33:05;;;;;;;13.37;10.00;;;-1.70;99.90;;;;;;5035656;28;20508;-71
2023/02/08 03:36:01;;;;;;;12.67;9.50;;;-1.70;99.90;;;;;;5049356;28;20434;-71
2023/02/08 03:38:35;;;;;;;11.70;10.40;;;-1.70;99.90;;;;;;5035182;28;20505;-71
2023/02/08 03:41:05;;;;;;;15.37;11.10;;;-1.70;99.90;;;;;;5035748;28;20950;-71
2023/02/08 03:43:42;;;;;;;11.87;10.10;;;-1.70;99.90;;;;;;5036733;28;20414;-71
2023/02/08 03:46:13;;;;;;;11.80;9.60;;;-1.70;99.90;;;;;;5051618;28;20414;-70
2023/02/08 03:48:45;;;;;;;14.87;11.30;;;-1.70;99.90;;;;;;5052122;28;20493;-72
2023/02/08 03:51:11;;;;;;;13.57;10.20;;;-1.80;99.90;;;;;;5036398;28;20847;-71
2023/02/08 03:53:39;;;;;;;13.53;10.83;;;-1.80;99.90;;;;;;5036841;28;20485;-71
2023/02/08 03:56:11;;;;;;;14.63;10.53;;;-1.90;99.90;;;;;;5034378;28;20785;-71
2023/02/08 03:58:45;;;;;;;16.33;11.23;;;-1.80;99.90;;;;;;5013763;28;20483;-71
2023/02/08 04:01:18;;;;;;;14.10;9.83;;;-1.90;99.90;;;;;;5014092;28;20916;-71
2023/02/08 04:03:47;;;;;;;14.70;11.60;;;-1.80;99.90;;;;;;5012930;28;20449;-70
2023/02/08 04:06:13;;;;;;;12.87;10.17;;;-1.80;99.90;;;;;;5029306;28;20411;-70
2023/02/08 04:08:39;;;;;;;14.43;11.00;;;-1.80;99.90;;;;;;5029249;28;20760;-71
2023/02/08 04:11:04;;;;;;;14.77;11.77;;;-1.80;99.90;;;;;;5014094;28;20230;-71
2023/02/08 04:13:30;;;;;;;14.53;12.23;;;-1.80;99.90;;;;;;5029056;28;20172;-71
2023/02/08 04:15:55;;;;;;;18.93;12.80;;;-1.80;99.90;;;;;;5013668;28;20285;-71
2023/02/08 04:18:21;;;;;;;14.70;11.60;;;-1.80;99.90;;;;;;5014447;28;20180;-71
2023/02/08 04:20:47;;;;;;;13.40;11.50;;;-1.80;99.90;;;;;;5014318;28;20172;-71
2023/02/08 04:23:12;;;;;;;15.37;12.23;;;-1.80;99.90;;;;;;5013932;28;20195;-71
2023/02/08 04:25:38;;;;;;;14.20;10.90;;;-2.00;99.90;;;;;;5013808;28;20180;-71
2023/02/08 04:28:03;;;;;;;15.20;11.00;;;-2.00;99.90;;;;;;5044224;28;20175;-70
2023/02/08 04:30:29;;;;;;;15.70;12.10;;;-2.00;99.90;;;;;;5033229;28;20677;-71
2023/02/08 04:32:55;;;;;;;14.97;12.33;;;-2.00;99.90;;;;;;5031887;28;20737;-71
2023/02/08 04:35:20;;;;;;;20.50;14.20;;;-2.00;99.90;;;;;;5033184;28;20171;-72
2023/02/08 04:37:46;;;;;;;16.37;12.07;;;-2.00;99.90;;;;;;5033350;28;20254;-71
2023/02/08 04:40:11;;;;;;;13.20;11.20;;;-2.10;99.90;;;;;;5032167;28;20214;-71
2023/02/08 04:42:37;;;;;;;16.43;12.83;;;-2.00;99.90;;;;;;5034719;28;20198;-71
2023/02/08 04:45:03;;;;;;;17.83;12.80;;;-2.00;99.90;;;;;;5033244;28;20601;-71
2023/02/08 04:47:28;;;;;;;17.77;13.40;;;-1.90;99.90;;;;;;5031410;28;20258;-71
2023/02/08 04:49:54;;;;;;;19.33;12.47;;;-2.00;99.90;;;;;;5031755;28;20195;-71
2023/02/08 04:52:19;;;;;;;18.30;14.00;;;-2.10;99.90;;;;;;5032943;28;20203;-71
2023/02/08 04:54:45;;;;;;;17.23;14.20;;;-2.20;99.90;;;;;;5032901;28;20313;-71
2023/02/08 04:57:14;;;;;;;22.40;18.97;;;-2.20;99.90;;;;;;5032829;28;20203;-71
2023/02/08 04:59:39;;;;;;;25.60;18.40;;;-2.10;99.90;;;;;;5032796;28;20190;-71
2023/02/08 05:02:05;;;;;;;27.70;20.10;;;-2.20;99.90;;;;;;5032210;28;20444;-71
2023/02/08 05:04:31;;;;;;;28.47;22.00;;;-2.20;99.90;;;;;;5031574;28;20185;-71
2023/02/08 05:06:57;;;;;;;32.30;23.67;;;-2.20;99.90;;;;;;5032737;28;20171;-71
2023/02/08 05:09:23;;;;;;;37.53;24.83;;;-2.10;99.90;;;;;;5030788;28;20500;-71
2023/02/08 05:11:49;;;;;;;29.03;19.73;;;-2.10;99.90;;;;;;5032310;28;20501;-70
2023/02/08 05:14:14;;;;;;;31.57;22.20;;;-2.20;99.90;;;;;;5032813;28;20696;-72
2023/02/08 05:16:40;;;;;;;28.87;19.80;;;-2.20;99.90;;;;;;5033483;28;20178;-71
2023/02/08 05:19:05;;;;;;;21.73;16.73;;;-2.10;99.90;;;;;;5033990;28;20168;-71
2023/02/08 05:21:31;;;;;;;24.67;19.17;;;-2.20;99.90;;;;;;5032369;28;20206;-71
2023/02/08 05:23:56;;;;;;;26.20;18.00;;;-2.10;99.90;;;;;;5034255;28;20212;-71
2023/02/08 05:26:22;;;;;;;24.93;17.97;;;-2.20;99.90;;;;;;5032619;28;20183;-71
2023/02/08 05:28:48;;;;;;;22.70;15.80;;;-2.10;99.90;;;;;;5032290;28;20657;-71
2023/02/08 05:31:21;;;;;;;19.87;16.10;;;-2.00;99.90;;;;;;5032333;28;20661;-71
2023/02/08 05:33:51;;;;;;;24.10;19.40;;;-2.00;99.90;;;;;;5033482;28;20231;-70
2023/02/08 05:36:18;;;;;;;28.03;19.27;;;-2.00;99.90;;;;;;5033719;28;20400;-71
2023/02/08 05:38:44;;;;;;;25.87;19.13;;;-2.00;99.90;;;;;;5033690;28;20399;-71
2023/02/08 05:41:09;;;;;;;26.50;20.93;;;-1.90;99.90;;;;;;5033179;28;20401;-70
2023/02/08 05:43:35;;;;;;;23.57;18.87;;;-2.00;99.90;;;;;;5048783;28;20163;-70
2023/02/08 05:46:01;;;;;;;21.63;17.70;;;-2.10;99.90;;;;;;5033482;28;20581;-69
2023/02/08 05:48:27;;;;;;;22.97;17.10;;;-2.10;99.90;;;;;;5033420;28;20402;-70
2023/02/08 05:50:52;;;;;;;22.63;17.07;;;-2.20;99.90;;;;;;5033609;28;20203;-70
2023/02/08 05:53:18;;;;;;;18.03;15.00;;;-2.20;99.90;;;;;;5035462;28;20203;-69
2023/02/08 05:55:45;;;;;;;22.27;14.80;;;-2.20;99.90;;;;;;5035704;28;20519;-70
2023/02/08 05:58:11;;;;;;;20.13;14.77;;;-2.20;99.90;;;;;;5050278;28;20172;-71
2023/02/08 06:00:37;;;;;;;20.50;16.50;;;-2.10;99.90;;;;;;5050040;28;20493;-71
2023/02/08 06:03:03;;;;;;;20.13;15.10;;;-2.20;99.90;;;;;;5034489;28;20469;-72
2023/02/08 06:05:28;;;;;;;23.33;14.27;;;-2.20;99.90;;;;;;5036336;28;20196;-70
2023/02/08 06:07:54;;;;;;;19.50;13.97;;;-2.20;99.90;;;;;;5015587;28;20226;-72
2023/02/08 06:10:20;;;;;;;18.00;15.10;;;-2.20;99.90;;;;;;5013979;28;20195;-72
2023/02/08 06:12:45;;;;;;;16.80;13.40;;;-2.20;99.90;;;;;;5013722;28;20234;-71
2023/02/08 06:15:11;;;;;;;20.00;15.00;;;-2.20;99.90;;;;;;5014232;28;20164;-71
2023/02/08 06:17:36;;;;;;;21.80;16.93;;;-2.20;99.90;;;;;;5033002;28;20168;-71
2023/02/08 06:20:03;;;;;;;17.60;13.80;;;-2.20;99.90;;;;;;5033556;28;20194;-71
2023/02/08 06:22:28;;;;;;;28.57;16.83;;;-2.20;99.90;;;;;;5051396;28;20207;-71
2023/02/08 06:24:54;;;;;;;19.57;15.00;;;-2.20;99.90;;;;;;5037711;28;20406;-70
2023/02/08 06:27:19;;;;;;;24.63;17.33;;;-2.30;99.90;;;;;;5036909;28;20178;-70
2023/02/08 06:29:45;;;;;;;19.60;15.93;;;-2.30;99.90;;;;;;5036698;28;20191;-70
2023/02/08 06:32:10;;;;;;;18.80;15.60;;;-2.30;99.90;;;;;;5035237;28;20203;-70
2023/02/08 06:34:36;;;;;;;20.63;16.37;;;-2.20;99.90;;;;;;5037353;28;20239;-71
2023/02/08 06:37:04;;;;;;;22.07;16.10;;;-2.20;99.90;;;;;;5035915;28;20167;-72
2023/02/08 06:39:30;;;;;;;19.27;14.03;;;-2.20;99.90;;;;;;5050687;28;20258;-71
2023/02/08 06:41:56;;;;;;;21.10;14.70;;;-2.20;99.90;;;;;;5035680;28;20507;-71
2023/02/08 06:44:22;;;;;;;21.53;14.57;;;-2.20;99.90;;;;;;5036119;28;20800;-71
2023/02/08 06:46:48;;;;;;;17.90;14.80;;;-2.20;99.90;;;;;;5035903;28;20490;-71
2023/02/08 06:49:13;;;;;;;21.77;14.70;;;-2.20;99.90;;;;;;5035768;28;20553;-71
2023/02/08 06:51:40;;;;;;;20.43;14.43;;;-2.20;99.90;;;;;;5035255;28;20191;-71
2023/02/08 06:54:05;;;;;;;20.07;14.20;;;-2.20;99.90;;;;;;5036829;28;20630;-72
2023/02/08 06:56:31;;;;;;;16.97;13.47;;;-2.20;99.90;;;;;;5036386;28;20436;-71
2023/02/08 06:58:56;;;;;;;19.33;14.47;;;-2.10;99.90;;;;;;5036256;28;20221;-72
2023/02/08 07:01:22;;;;;;;18.57;14.60;;;-2.20;99.90;;;;;;5038382;28;20253;-72
2023/02/08 07:03:47;;;;;;;20.50;13.97;;;-2.20;99.90;;;;;;5037211;28;20246;-72
2023/02/08 07:06:14;;;;;;;19.33;14.60;;;-2.10;99.90;;;;;;5037649;28;20199;-72
2023/02/08 07:08:40;;;;;;;18.23;14.57;;;-2.10;99.90;;;;;;5041289;28;20183;-72
2023/02/08 07:11:12;;;;;;;22.63;16.83;;;-2.10;99.90;;;;;;5038375;28;20398;-72
2023/02/08 07:13:38;;;;;;;17.57;13.10;;;-2.10;99.90;;;;;;5037259;28;20409;-76
2023/02/08 07:16:05;;;;;;;16.93;13.30;;;-2.10;99.90;;;;;;5037321;28;20765;-70
2023/02/08 07:18:30;;;;;;;21.00;14.87;;;-2.00;99.90;;;;;;5036724;28;20488;-72
2023/02/08 07:20:56;;;;;;;24.90;15.33;;;-2.10;99.90;;;;;;5036427;28;20414;-72
2023/02/08 07:23:22;;;;;;;26.77;16.40;;;-2.10;99.90;;;;;;5050404;28;20475;-72
2023/02/08 07:26:02;;;;;;;26.97;16.40;;;-2.00;99.90;;;;;;5034994;28;20195;-72
2023/02/08 07:28:28;;;;;;;25.80;18.50;;;-2.00;99.90;;;;;;5035198;28;20238;-71
2023/02/08 07:30:54;;;;;;;28.60;18.23;;;-2.00;99.90;;;;;;5049912;28;21052;-70
2023/02/08 07:33:20;;;;;;;25.10;17.80;;;-2.00;99.90;;;;;;5032631;28;20448;-71
2023/02/08 07:35:46;;;;;;;26.57;17.10;;;-1.90;99.90;;;;;;5035570;28;20242;-72
2023/02/08 07:38:11;;;;;;;20.33;14.33;;;-1.90;99.90;;;;;;5040526;28;20426;-73
2023/02/08 07:40:37;;;;;;;17.60;14.07;;;-1.80;99.90;;;;;;5041871;28;20188;-72
2023/02/08 07:43:03;;;;;;;17.70;13.20;;;-1.90;99.90;;;;;;5037619;28;20229;-72
2023/02/08 07:45:28;;;;;;;23.33;14.30;;;-1.90;99.90;;;;;;5035245;28;20932;-71
2023/02/08 07:47:54;;;;;;;25.43;16.93;;;-1.80;99.90;;;;;;5034585;28;20175;-71
2023/02/08 07:50:19;;;;;;;21.23;16.13;;;-1.80;99.90;;;;;;5034607;28;20195;-72
2023/02/08 07:52:46;;;;;;;21.93;16.13;;;-1.80;99.90;;;;;;5034659;28;20685;-71
2023/02/08 07:55:16;;;;;;;21.47;14.33;;;-1.70;99.90;;;;;;5033310;28;20254;-73
2023/02/08 07:57:48;;;;;;;20.97;15.83;;;-1.60;99.90;;;;;;5035096;28;20418;-73
2023/02/08 08:00:16;;;;;;;24.83;15.53;;;-1.60;99.90;;;;;;5034975;28;20386;-72
2023/02/08 08:02:42;;;;;;;20.80;14.80;;;-1.50;99.90;;;;;;5033925;28;20503;-72
2023/02/08 08:05:08;;;;;;;20.20;15.23;;;-1.40;99.90;;;;;;5033999;28;20410;-72
2023/02/08 08:07:34;;;;;;;20.63;15.83;;;-1.40;99.90;;;;;;5034840;28;20410;-72
2023/02/08 08:10:00;;;;;;;19.80;16.57;;;-1.40;99.90;;;;;;5034064;28;20819;-73
2023/02/08 08:12:25;;;;;;;18.23;14.73;;;-1.40;99.90;;;;;;5034074;28;20266;-72
2023/02/08 08:14:51;;;;;;;20.47;16.43;;;-1.20;99.90;;;;;;5034168;28;20167;-72
2023/02/08 08:17:17;;;;;;;20.40;15.80;;;-1.20;99.90;;;;;;5033260;28;20175;-72
2023/02/08 08:19:43;;;;;;;18.80;15.10;;;-1.10;99.90;;;;;;5026147;28;20418;-72
2023/02/08 08:22:09;;;;;;;22.00;14.73;;;-1.00;99.90;;;;;;5032695;28;20207;-72
2023/02/08 08:24:34;;;;;;;19.40;15.60;;;-1.00;99.90;;;;;;5048658;28;20274;-73
2023/02/08 08:27:07;;;;;;;21.33;16.10;;;-0.90;99.90;;;;;;5030377;28;20445;-73
2023/02/08 08:29:34;;;;;;;21.73;16.77;;;-0.80;99.90;;;;;;5028922;28;20207;-72
2023/02/08 08:32:00;;;;;;;20.77;16.57;;;-0.60;99.90;;;;;;5027207;28;20531;-71
2023/02/08 08:34:28;;;;;;;19.43;15.40;;;-0.60;99.90;;;;;;5027709;28;20505;-73
2023/02/08 08:37:01;;;;;;;19.60;15.33;;;-0.40;99.90;;;;;;5039905;28;20234;-73
2023/02/08 08:39:27;;;;;;;20.00;14.13;;;-0.20;99.90;;;;;;5028289;28;20521;-73
2023/02/08 08:41:57;;;;;;;19.93;15.20;;;-0.10;99.90;;;;;;5029008;28;20509;-73
2023/02/08 08:44:22;;;;;;;19.30;14.67;;;0.00;99.90;;;;;;5028863;28;20413;-72
2023/02/08 08:46:48;;;;;;;17.53;13.40;;;0.10;99.90;;;;;;5027725;28;20420;-72
2023/02/08 08:49:13;;;;;;;20.47;14.67;;;0.10;99.90;;;;;;5027748;28;20283;-73
2023/02/08 08:51:39;;;;;;;22.20;15.23;;;0.20;99.90;;;;;;5027355;28;20216;-72
2023/02/08 08:54:05;;;;;;;22.50;15.00;;;0.30;99.90;;;;;;5028414;28;20711;-73
2023/02/08 08:56:31;;;;;;;18.13;14.43;;;0.40;99.90;;;;;;5026762;28;20256;-72
2023/02/08 08:58:57;;;;;;;22.23;14.40;;;0.40;99.90;;;;;;5042800;28;20166;-71
2023/02/08 09:01:23;;;;;;;24.23;16.33;;;0.40;99.90;;;;;;5042589;28;20518;-71
2023/02/08 09:03:48;;;;;;;22.30;14.80;;;0.50;99.90;;;;;;5027047;28;20499;-71
2023/02/08 09:06:14;;;;;;;21.77;15.53;;;0.60;99.90;;;;;;5028061;28;20193;-73
2023/02/08 09:08:40;;;;;;;18.37;14.63;;;0.70;99.90;;;;;;5026784;28;20185;-71
2023/02/08 09:11:08;;;;;;;17.00;13.13;;;0.80;99.90;;;;;;5027173;28;20252;-71
2023/02/08 09:13:34;;;;;;;20.37;15.07;;;0.80;99.90;;;;;;5026925;28;20554;-71
2023/02/08 09:16:04;;;;;;;21.30;15.70;;;0.60;99.90;;;;;;5027847;28;20408;-71
2023/02/08 09:18:30;;;;;;;24.37;15.43;;;0.60;99.90;;;;;;5043741;28;20168;-72
2023/02/08 09:20:56;;;;;;;33.07;22.60;;;0.50;99.90;;;;;;5028032;28;20419;-71
2023/02/08 09:23:21;;;;;;;27.30;17.67;;;0.40;99.90;;;;;;5027982;28;20209;-70
2023/02/08 09:25:47;;;;;;;20.40;15.37;;;0.50;99.90;;;;;;5039338;28;20178;-71
2023/02/08 09:28:12;;;;;;;24.67;14.17;;;0.50;99.90;;;;;;5027828;28;20287;-72
2023/02/08 09:30:38;;;;;;;19.70;15.47;;;0.40;99.90;;;;;;5026444;28;20619;-71
2023/02/08 09:33:03;;;;;;;23.20;15.70;;;0.30;99.90;;;;;;5025651;28;20198;-71
2023/02/08 09:35:29;;;;;;;20.83;14.67;;;0.40;99.90;;;;;;5026852;28;20229;-71
2023/02/08 09:37:56;;;;;;;21.47;15.07;;;0.70;99.90;;;;;;5027183;28;20174;-71
2023/02/08 09:40:30;;;;;;;22.97;15.43;;;0.90;99.90;;;;;;5027166;28;20184;-71
2023/02/08 09:43:11;;;;;;;20.40;14.50;;;0.90;99.90;;;;;;5025922;28;20437;-73
2023/02/08 09:46:00;;;;;;;22.90;15.03;;;0.80;99.90;;;;;;5027343;28;20851;-71
2023/02/08 09:48:36;;;;;;;20.50;13.87;;;0.90;99.90;;;;;;5026618;28;20919;-69
2023/02/08 09:51:23;;;;;;;21.50;14.47;;;0.80;99.90;;;;;;5026470;28;20455;-70
2023/02/08 09:53:56;;;;;;;19.20;13.67;;;0.70;99.90;;;;;;5028287;28;20431;-72
2023/02/08 09:56:30;;;;;;;18.43;14.17;;;0.70;99.90;;;;;;5029073;28;20388;-72
2023/02/08 09:58:57;;;;;;;19.43;14.30;;;0.70;99.90;;;;;;5032165;28;20453;-73
2023/02/08 10:01:29;;;;;;;18.10;13.37;;;0.70;99.90;;;;;;5032132;28;20963;-72
2023/02/08 10:04:18;;;;;;;21.87;15.30;;;0.90;99.90;;;;;;5032020;28;20448;-74
2023/02/08 10:06:44;;;;;;;15.43;13.63;;;0.90;99.50;;;;;;5046987;28;20908;-71
2023/02/08 10:09:13;;;;;;;18.60;14.40;;;0.90;99.20;;;;;;5032269;28;20713;-72
2023/02/08 10:11:52;;;;;;;23.20;14.03;;;1.00;99.50;;;;;;5029872;28;20532;-72
2023/02/08 10:14:41;;;;;;;16.27;12.47;;;1.10;99.10;;;;;;5031491;28;20409;-70
2023/02/08 10:17:37;;;;;;;19.77;13.70;;;1.30;99.00;;;;;;5030125;28;20416;-71
2023/02/08 10:20:31;;;;;;;21.70;14.60;;;1.30;99.30;;;;;;5034285;28;20451;-71
2023/02/08 10:23:35;;;;;;;20.60;13.73;;;1.60;98.90;;;;;;5039633;28;20513;-74
2023/02/08 10:26:19;;;;;;;17.10;12.40;;;1.80;98.80;;;;;;4988020;28;20525;-73
2023/02/08 10:29:06;;;;;;;18.00;13.27;;;1.90;98.20;;;;;;4971654;28;20431;-71
2023/02/08 10:31:31;;;;;;;19.63;14.03;;;1.80;98.00;;;;;;5018363;28;20430;-70
2023/02/08 10:34:28;;;;;;;16.67;14.37;;;2.10;97.90;;;;;;5029105;28;20410;-70
2023/02/08 10:36:55;;;;;;;17.77;13.10;;;2.10;97.40;;;;;;5030180;28;20155;-72
2023/02/08 10:39:31;;;;;;;20.27;14.50;;;2.10;97.00;;;;;;5031137;28;20406;-71
2023/02/08 10:41:58;;;;;;;19.30;12.67;;;2.20;97.30;;;;;;5029915;28;20515;-71
2023/02/08 10:44:42;;;;;;;16.80;13.67;;;2.40;97.30;;;;;;5030918;28;20468;-72
2023/02/08 10:47:26;;;;;;;20.50;14.37;;;2.40;97.00;;;;;;5033703;28;20426;-72
2023/02/08 10:50:02;;;;;;;20.77;13.93;;;2.40;96.70;;;;;;5032357;28;20798;-70
2023/02/08 10:52:27;;;;;;;18.03;13.30;;;2.60;96.50;;;;;;5030313;28;20536;-71
2023/02/08 10:54:56;;;;;;;22.90;13.50;;;2.70;96.30;;;;;;5045998;28;20485;-73
2023/02/08 10:57:30;;;;;;;16.87;13.00;;;2.60;96.20;;;;;;5043141;28;20190;-71
2023/02/08 11:00:30;;;;;;;17.90;13.87;;;2.70;95.70;;;;;;5033266;28;20397;-71
2023/02/08 11:03:00;;;;;;;19.57;13.23;;;2.90;95.80;;;;;;5028771;28;20949;-71
2023/02/08 11:05:35;;;;;;;14.90;11.80;;;2.90;95.10;;;;;;5034968;28;20497;-71
2023/02/08 11:08:18;;;;;;;15.60;12.07;;;2.90;95.30;;;;;;5028537;28;20405;-70
2023/02/08 11:11:10;;;;;;;16.03;11.90;;;3.10;95.20;;;;;;5028698;28;20453;-71
2023/02/08 11:13:42;;;;;;;18.37;12.70;;;3.30;94.40;;;;;;5028979;28;20489;-70
2023/02/08 11:16:22;;;;;;;16.60;12.77;;;3.70;94.10;;;;;;5029942;28;20410;-70
2023/02/08 11:18:52;;;;;;;20.17;12.70;;;5.00;93.10;;;;;;5027702;28;20438;-75
2023/02/08 11:21:33;;;;;;;14.87;12.13;;;7.40;90.70;;;;;;5029146;28;20406;-73
2023/02/08 11:24:20;;;;;;;16.57;11.80;;;7.70;81.80;;;;;;5029279;28;20415;-73
2023/02/08 11:26:47;;;;;;;14.87;12.40;;;8.80;75.70;;;;;;5026693;28;20435;-72
2023/02/08 11:29:28;;;;;;;18.57;12.70;;;9.10;72.10;;;;;;5038556;28;20993;-73
2023/02/08 11:32:14;;;;;;;18.20;14.00;;;9.90;71.00;;;;;;5030037;28;20453;-70
2023/02/08 11:34:40;;;;;;;16.77;13.07;;;11.50;64.70;;;;;;5028068;28;20410;-72
2023/02/08 11:37:24;;;;;;;17.60;12.37;;;11.70;60.00;;;;;;5028705;28;20420;-70
2023/02/08 11:40:00;;;;;;;16.87;12.60;;;11.50;61.40;;;;;;5028274;28;20160;-72
2023/02/08 11:42:34;;;;;;;19.67;12.97;;;12.70;57.30;;;;;;5034337;28;20426;-71
2023/02/08 11:45:00;;;;;;;12.10;10.80;;;13.30;55.00;;;;;;5032096;28;20433;-71
2023/02/08 11:47:30;;;;;;;14.43;12.30;;;13.70;53.80;;;;;;5030261;28;20500;-66
2023/02/08 11:49:59;;;;;;;12.53;11.20;;;13.60;52.70;;;;;;5028559;28;20199;-70
2023/02/08 11:52:31;;;;;;;16.20;12.23;;;13.80;51.50;;;;;;5063361;22;21578;-72
2023/02/08 11:55:26;;;;;;;17.43;11.80;;;14.00;50.80;;;;;;5033053;28;20402;-70
2023/02/08 11:57:59;;;;;;;12.53;10.70;;;13.50;49.50;;;;;;5015689;28;20399;-69
2023/02/08 12:00:30;;;;;;;16.47;11.83;;;14.40;50.10;;;;;;5031323;28;20542;-70
2023/02/08 12:03:00;;;;;;;13.50;10.87;;;13.60;49.40;;;;;;5042287;28;20952;-70
2023/02/08 12:05:40;;;;;;;13.83;10.60;;;12.40;49.70;;;;;;5053333;28;20497;-70
2023/02/08 12:08:21;;;;;;;13.93;10.67;;;12.80;50.60;;;;;;5053098;28;20389;-69
2023/02/08 12:11:15;;;;;;;12.90;10.83;;;12.50;49.80;;;;;;5052639;28;20806;-71
2023/02/08 12:13:53;;;;;;;12.80;11.10;;;13.90;49.60;;;;;;5053201;28;20432;-70
2023/02/08 12:16:37;;;;;;;13.47;10.53;;;13.40;49.30;;;;;;5053224;28;20444;-70
2023/02/08 12:19:18;;;;;;;12.90;10.90;;;11.90;49.10;;;;;;5052279;28;20448;-71
2023/02/08 12:21:47;;;;;;;17.60;11.83;;;12.60;50.10;;;;;;5052428;28;20413;-71
2023/02/08 12:24:12;;;;;;;11.30;9.50;;;14.10;49.00;;;;;;5051232;28;20520;-71
2023/02/08 12:26:50;;;;;;;15.33;10.30;;;12.90;47.60;;;;;;5034253;28;20572;-71
2023/02/08 12:29:46;;;;;;;11.90;10.30;;;13.70;49.00;;;;;;5052345;28;20235;-71
2023/02/08 12:32:24;;;;;;;10.10;8.47;;;15.70;46.40;;;;;;5052878;28;20910;-71
2023/02/08 12:35:35;;;;;;;11.57;9.10;;;14.50;47.80;;;;;;5051241;28;20411;-71
2023/02/08 12:41:08;;;;;;;10.30;9.03;;;13.20;48.10;;;;;;5052868;28;20387;-70
2023/02/08 12:44:01;;;;;;;10.50;9.40;;;12.10;49.40;;;;;;5052782;28;20428;-71
2023/02/08 12:46:35;;;;;;;12.60;9.37;;;11.70;50.30;;;;;;5032726;28;20417;-70
2023/02/08 12:49:16;;;;;;;10.77;9.50;;;12.00;50.30;;;;;;5025625;28;20442;-72
2023/02/08 12:54:58;;;;;;;10.07;8.77;;;14.40;47.90;;;;;;5065227;28;20555;-72
2023/02/08 12:57:30;;;;;;;11.03;9.33;;;14.70;46.10;;;;;;5066876;28;20921;-71
2023/02/08 13:00:15;;;;;;;10.57;9.47;;;15.70;44.80;;;;;;5063877;28;20420;-71